Aeroporto :
LOGIN :

Iscrizione | Disclaimer

   EN    FR    IT 

 










Sommario :    VFR   VFR Marginale   IFR   IFR Intensivo   IFR Molto Intensivo
Visibilità : 
Base nubi : 
>= 8 km
>= 3000ft
5 / 8 km
1000 / 3000 ft
1500m / 5 km
500 / 1000 ft
800 / 1500m
200 / 500 ft
< 800m
< 200 ft
Simboli :   Temporali  Nebbia  Neve Forte  Precipitazioni Forti  Vento > 20 kt
SIGMETs :   Varie  Temporali  Ghiacco  Turbolenza  Onda orograficha  Ceneri Vulcaniche






- Altitudine del aeroporto : 3006 ft
- Codice IATA : LEN


LELN - Leon

ULTIMO METAR :
  • 250630Z AUTO 26013KT CAVOK 07/M02 Q1020

METARs OBSOLETI :
  • 250600Z AUTO 27011KT CAVOK 07/M03 Q1020
  • 250530Z AUTO 28011KT 9999 OVC057 08/M04 Q1020
  • 250500Z AUTO 34003KT 290V020 9999 FEW047 08/M05 Q1020
  • 250430Z AUTO 27010KT 230V320 CAVOK 09/M05 Q1020

TAF TAF LELN
Valido dal 25 a 06 ore il 25 a 15 ore UTC


250500Z 2506/2515 28010KT 9999 FEW045
PROB30
TEMPO 2510/2513 3000 RA BKN014



MetMap, La meteo Aeronautica in un colpo d'occhio ! - Copyright ORBIFLY Dicembre 2007 - Disclaimer

ORBIFLY MET'MAP TEAM :

Programmazione e sviluppo : Alexandra Zaïnal
Concezione : Baudouin d'Aumeries
Aiuto per la programmazione : Marc-Olivier Méhu
Supporto tecnico e logistico : Manuel Goepfert
Aiuto per la traduzione : Arnaldo La Scala

Contatto : metmap@orbifly.com




FONTI E CREDITI :

   NOAA